Time;durP1;ratioP1;P1;durP2;ratioP2;P2;SDS_P1;SDS_P2;PMS_P1;PMS_P2;Temp;Humidity;BMP_temperature;BMP_pressure;BME280_temperature;BME280_humidity;BME280_pressure;Samples;Min_cycle;Max_cycle;Signal;HPM_P1;HPM_P2
2023/08/30 00:00:18;;;;;;;0.77;0.77;;;;;;;21.60;100.00;100353.31;2092413;28;20180;-63
2023/08/30 00:01:18;;;;;;;0.50;0.50;;;;;;;21.51;100.00;100347.16;2091261;28;20266;-63
2023/08/30 00:02:19;;;;;;;0.67;0.30;;;;;;;21.52;100.00;100335.38;2095346;28;20202;-63
2023/08/30 00:03:19;;;;;;;0.20;0.20;;;;;;;21.52;100.00;100329.75;2090174;28;20184;-63
2023/08/30 00:04:21;;;;;;;1.20;0.50;;;;;;;21.50;100.00;100340.00;2089628;28;20188;-63
2023/08/30 00:05:21;;;;;;;0.10;0.10;;;;;;;21.46;100.00;100334.63;2093490;28;20184;-63
2023/08/30 00:06:21;;;;;;;0.10;0.10;;;;;;;21.43;100.00;100334.88;2087731;28;20603;-63
2023/08/30 00:07:22;;;;;;;0.23;0.20;;;;;;;21.43;100.00;100348.97;2088945;28;20611;-63
2023/08/30 00:08:22;;;;;;;0.30;0.30;;;;;;;21.44;100.00;100356.16;2092302;28;20615;-63
2023/08/30 00:09:23;;;;;;;0.13;0.13;;;;;;;21.46;100.00;100370.50;2087722;28;20576;-63
2023/08/30 00:10:23;;;;;;;0.53;0.50;;;;;;;21.47;100.00;100395.38;2087856;28;20676;-63
2023/08/30 00:11:24;;;;;;;0.40;0.40;;;;;;;21.54;100.00;100389.19;2090382;28;20704;-63
2023/08/30 00:12:25;;;;;;;0.80;0.60;;;;;;;21.60;100.00;100394.84;2094875;28;20183;-63
2023/08/30 00:13:26;;;;;;;2.30;0.97;;;;;;;21.56;100.00;100369.75;2090145;28;20314;-63
2023/08/30 00:14:26;;;;;;;0.27;0.27;;;;;;;21.67;100.00;100371.75;2093375;28;20569;-63
2023/08/30 00:15:27;;;;;;;1.17;0.40;;;;;;;21.71;100.00;100373.09;2092999;28;20406;-63
2023/08/30 00:16:28;;;;;;;0.47;0.47;;;;;;;21.68;100.00;100362.00;2093771;28;20187;-63
2023/08/30 00:17:28;;;;;;;0.30;0.30;;;;;;;21.67;100.00;100355.63;2091967;28;20266;-63
2023/08/30 00:18:29;;;;;;;0.33;0.27;;;;;;;21.74;100.00;100352.28;2087232;28;20188;-63
2023/08/30 00:19:30;;;;;;;0.57;0.57;;;;;;;21.80;100.00;100346.66;2094877;28;20664;-63
2023/08/30 00:20:30;;;;;;;0.20;0.20;;;;;;;21.72;100.00;100351.28;2096010;28;20191;-63
2023/08/30 00:21:31;;;;;;;1.80;0.97;;;;;;;21.66;100.00;100353.31;2087818;28;20184;-63
2023/08/30 00:22:31;;;;;;;1.00;0.37;;;;;;;21.66;100.00;100356.13;2094303;28;20566;-63
2023/08/30 00:23:32;;;;;;;0.40;0.20;;;;;;;21.70;100.00;100362.31;2090021;28;20184;-63
2023/08/30 00:24:32;;;;;;;0.20;0.20;;;;;;;21.74;100.00;100374.13;2088641;28;20203;-63
2023/08/30 00:25:33;;;;;;;0.87;0.43;;;;;;;21.52;100.00;100337.44;2093976;28;20265;-63
2023/08/30 00:26:33;;;;;;;0.80;0.77;;;;;;;21.74;100.00;100376.94;2090336;28;20219;-63
2023/08/30 00:27:33;;;;;;;0.37;0.30;;;;;;;21.48;100.00;100348.97;2089621;28;20184;-63
2023/08/30 00:28:34;;;;;;;0.20;0.20;;;;;;;21.84;100.00;100403.56;2087510;28;20188;-63
2023/08/30 00:29:34;;;;;;;0.20;0.20;;;;;;;21.87;100.00;100411.78;2087848;28;20286;-63
2023/08/30 00:30:35;;;;;;;0.20;0.20;;;;;;;21.92;100.00;100415.88;2089219;28;20561;-63
2023/08/30 00:31:35;;;;;;;0.20;0.20;;;;;;;21.93;100.00;100421.00;2087475;28;20670;-63
2023/08/30 00:32:36;;;;;;;0.30;0.30;;;;;;;21.93;100.00;100420.22;2088427;28;20190;-63
2023/08/30 00:33:37;;;;;;;0.30;0.30;;;;;;;21.97;100.00;100427.16;2095395;28;20214;-63
2023/08/30 00:34:37;;;;;;;0.20;0.20;;;;;;;22.01;100.00;100422.00;2091158;28;20183;-63
2023/08/30 00:35:38;;;;;;;0.57;0.57;;;;;;;22.01;100.00;100422.00;2093060;28;20195;-63
2023/08/30 00:36:38;;;;;;;0.30;0.30;;;;;;;22.01;100.00;100421.25;2089625;28;20196;-63
2023/08/30 00:37:40;;;;;;;0.27;0.27;;;;;;;22.00;100.00;100412.00;2087570;28;21437;-63
2023/08/30 00:38:40;;;;;;;0.27;0.27;;;;;;;22.07;100.00;100422.78;2088676;28;20264;-63
2023/08/30 00:39:41;;;;;;;0.10;0.10;;;;;;;21.93;100.00;100406.91;2092699;28;20184;-63
2023/08/30 00:40:41;;;;;;;0.20;0.20;;;;;;;22.07;100.00;100416.34;2088898;28;21579;-63
2023/08/30 00:41:42;;;;;;;0.60;0.40;;;;;;;22.08;100.00;100424.31;2087550;28;20662;-63
2023/08/30 00:42:42;;;;;;;0.63;0.53;;;;;;;22.13;100.00;100408.66;2087675;28;20467;-63
2023/08/30 00:43:43;;;;;;;0.77;0.20;;;;;;;22.14;100.00;100408.13;2087473;28;20194;-63
2023/08/30 00:44:43;;;;;;;0.40;0.30;;;;;;;22.16;100.00;100408.38;2087826;28;20212;-63
2023/08/30 00:45:44;;;;;;;0.17;0.17;;;;;;;21.98;100.00;100375.09;2094551;28;20204;-63
2023/08/30 00:46:45;;;;;;;0.23;0.23;;;;;;;22.23;100.00;100415.53;2091222;28;20192;-63
2023/08/30 00:47:45;;;;;;;0.20;0.20;;;;;;;22.29;100.00;100419.91;2089210;28;20192;-63
2023/08/30 00:48:46;;;;;;;0.23;0.23;;;;;;;22.30;100.00;100421.44;2093478;28;20779;-63
2023/08/30 00:49:46;;;;;;;0.30;0.30;;;;;;;22.31;100.00;100422.97;2087439;28;20263;-63
2023/08/30 00:50:47;;;;;;;0.20;0.20;;;;;;;22.32;100.00;100435.03;2089872;28;20179;-63
2023/08/30 00:51:49;;;;;;;0.97;0.40;;;;;;;21.87;100.00;100366.66;2095688;28;20270;-63
2023/08/30 00:52:49;;;;;;;0.20;0.20;;;;;;;22.28;100.00;100421.19;2088330;28;20188;-63
2023/08/30 00:53:50;;;;;;;0.27;0.27;;;;;;;22.22;100.00;100420.41;2088230;28;20279;-63
2023/08/30 00:54:50;;;;;;;0.27;0.27;;;;;;;22.26;100.00;100425.81;2089442;28;20291;-63
2023/08/30 00:55:51;;;;;;;2.00;1.70;;;;;;;22.24;100.00;100422.72;2091942;28;20219;-63
2023/08/30 00:56:52;;;;;;;0.20;0.20;;;;;;;22.28;100.00;100418.38;2087411;28;20188;-63
2023/08/30 00:57:52;;;;;;;0.67;0.40;;;;;;;22.28;100.00;100426.06;2088370;28;20200;-63
2023/08/30 00:58:54;;;;;;;1.20;0.57;;;;;;;22.30;100.00;100424.25;2087473;28;20187;-63
2023/08/30 00:59:55;;;;;;;0.37;0.37;;;;;;;22.34;100.00;100423.97;2095362;28;20531;-63
2023/08/30 01:00:56;;;;;;;0.20;0.20;;;;;;;22.34;100.00;100438.88;2088451;28;20191;-63
2023/08/30 01:01:57;;;;;;;0.30;0.30;;;;;;;22.24;100.00;100417.06;2087555;28;20263;-63
2023/08/30 01:02:58;;;;;;;0.53;0.30;;;;;;;22.07;100.00;100393.78;2088115;28;20197;-63
2023/08/30 01:03:58;;;;;;;0.73;0.50;;;;;;;22.41;100.00;100446.81;2093937;28;20271;-63
2023/08/30 01:04:59;;;;;;;0.43;0.40;;;;;;;22.43;100.00;100441.44;2094127;28;20227;-63
2023/08/30 01:05:59;;;;;;;0.30;0.30;;;;;;;21.84;100.00;100359.19;2094490;28;20203;-63
2023/08/30 01:07:00;;;;;;;0.03;0.03;;;;;;;22.29;100.00;100424.75;2095330;28;20580;-63
2023/08/30 01:08:01;;;;;;;0.33;0.20;;;;;;;22.47;100.00;100452.47;2096796;28;20183;-63
2023/08/30 01:09:03;;;;;;;0.40;0.40;;;;;;;22.45;100.00;100455.03;2089159;28;20249;-63
2023/08/30 01:10:03;;;;;;;0.20;0.20;;;;;;;22.45;100.00;100449.38;2089766;28;20185;-63
2023/08/30 01:11:24;;;;;;;0.27;0.20;;;;;;;22.42;100.00;100453.97;2088840;28;20189;-63
2023/08/30 01:12:40;;;;;;;0.17;0.17;;;;;;;22.42;100.00;100453.97;2092407;28;20171;-63
2023/08/30 01:13:50;;;;;;;0.10;0.10;;;;;;;22.36;100.00;100446.84;2088489;28;20169;-63
2023/08/30 01:15:09;;;;;;;0.20;0.20;;;;;;;22.35;100.00;100450.91;2088775;28;20228;-63
2023/08/30 01:16:11;;;;;;;0.10;0.10;;;;;;;21.47;100.00;100316.44;2091143;28;20181;-63
2023/08/30 01:17:16;;;;;;;0.23;0.23;;;;;;;22.32;100.00;100444.25;2095938;28;20179;-63
2023/08/30 01:18:23;;;;;;;0.30;0.30;;;;;;;22.29;100.00;100436.84;2089145;28;20173;-63
2023/08/30 01:19:29;;;;;;;0.20;0.20;;;;;;;22.33;100.00;100430.91;2089180;28;20169;-63
2023/08/30 01:20:37;;;;;;;0.47;0.47;;;;;;;22.20;100.00;100436.31;2089359;28;20207;-63
2023/08/30 01:21:53;;;;;;;0.20;0.20;;;;;;;22.33;100.00;100445.03;2089673;28;20215;-63
2023/08/30 01:23:31;;;;;;;0.30;0.30;;;;;;;22.35;100.00;100445.28;2096693;28;20237;-63
2023/08/30 01:24:48;;;;;;;0.20;0.20;;;;;;;22.39;100.00;100463.50;2095347;28;20602;-63
2023/08/30 01:25:58;;;;;;;0.10;0.10;;;;;;;22.40;100.00;100462.22;2089550;28;20207;-63
2023/08/30 01:27:10;;;;;;;0.23;0.20;;;;;;;22.43;100.00;100472.47;2090395;28;20279;-64
2023/08/30 01:28:11;;;;;;;0.20;0.20;;;;;;;21.80;100.00;100384.06;2096055;28;20191;-63
2023/08/30 01:29:16;;;;;;;0.20;0.20;;;;;;;22.41;100.00;100480.69;2093663;28;20215;-64
2023/08/30 01:30:18;;;;;;;0.20;0.20;;;;;;;22.35;100.00;100467.84;2090515;28;20188;-64
2023/08/30 01:31:19;;;;;;;2.83;0.90;;;;;;;21.76;100.00;100375.13;2089254;28;20718;-64
2023/08/30 01:32:22;;;;;;;0.23;0.23;;;;;;;22.45;100.00;100484.06;2088862;28;20551;-64
2023/08/30 01:33:26;;;;;;;0.10;0.10;;;;;;;22.24;100.00;100448.91;2089092;28;20184;-64
2023/08/30 01:34:26;;;;;;;0.20;0.10;;;;;;;22.50;100.00;100486.09;2089221;28;20215;-64
2023/08/30 01:35:32;;;;;;;0.33;0.30;;;;;;;22.52;100.00;100474.28;2088478;28;20192;-64
2023/08/30 01:36:33;;;;;;;0.23;0.20;;;;;;;22.57;100.00;100488.38;2089447;28;20523;-64
2023/08/30 01:37:35;;;;;;;0.50;0.23;;;;;;;22.52;100.00;100485.56;2090778;28;20198;-64
2023/08/30 01:38:37;;;;;;;0.20;0.20;;;;;;;22.59;100.00;100501.97;2092169;28;20284;-64
2023/08/30 01:39:40;;;;;;;0.13;0.13;;;;;;;22.59;100.00;100497.09;2089513;28;20188;-64
2023/08/30 01:40:43;;;;;;;0.20;0.20;;;;;;;22.57;100.00;100491.19;2089156;28;20188;-63
2023/08/30 01:41:44;;;;;;;0.20;0.20;;;;;;;22.55;100.00;100487.34;2090920;28;20195;-63
2023/08/30 01:42:46;;;;;;;0.20;0.20;;;;;;;22.54;100.00;100472.47;2095390;28;20179;-63
2023/08/30 01:43:48;;;;;;;0.20;0.13;;;;;;;22.54;100.00;100486.59;2089248;28;20615;-63
2023/08/30 01:44:54;;;;;;;2.07;0.33;;;;;;;22.48;100.00;100476.59;2095997;28;20268;-63
2023/08/30 01:45:56;;;;;;;0.13;0.13;;;;;;;22.15;100.00;100434.31;2092564;28;20550;-63
2023/08/30 01:46:58;;;;;;;0.10;0.10;;;;;;;22.54;100.00;100475.31;2088885;28;20697;-63
2023/08/30 01:47:58;;;;;;;0.33;0.30;;;;;;;22.52;100.00;100471.47;2090441;28;20192;-63
2023/08/30 01:49:02;;;;;;;0.30;0.20;;;;;;;22.34;100.00;100463.50;2090791;28;20650;-63
2023/08/30 01:50:04;;;;;;;0.20;0.20;;;;;;;22.16;100.00;100456.34;2092501;28;20196;-63
2023/08/30 01:51:05;;;;;;;0.40;0.40;;;;;;;21.87;100.00;100442.81;2089582;28;20719;-63
2023/08/30 01:52:07;;;;;;;0.10;0.10;;;;;;;21.75;100.00;100448.97;2088585;28;20195;-63
2023/08/30 01:53:10;;;;;;;0.27;0.27;;;;;;;20.79;100.00;100327.41;2094117;28;20237;-63
2023/08/30 01:54:17;;;;;;;0.20;0.20;;;;;;;21.41;100.00;100439.69;2093385;28;20453;-63
2023/08/30 01:55:20;;;;;;;0.30;0.30;;;;;;;21.34;100.00;100419.72;2091001;28;20654;-63
2023/08/30 01:56:20;;;;;;;0.23;0.23;;;;;;;21.33;100.00;100410.47;2089464;28;20422;-63
2023/08/30 01:57:21;;;;;;;0.50;0.37;;;;;;;21.12;100.00;100385.84;2089279;28;20427;-63
2023/08/30 01:58:21;;;;;;;0.40;0.40;;;;;;;21.11;100.00;100387.91;2090856;28;20184;-63
2023/08/30 01:59:22;;;;;;;0.10;0.10;;;;;;;21.16;100.00;100397.63;2092539;28;20184;-63
2023/08/30 02:00:22;;;;;;;0.20;0.20;;;;;;;21.13;100.00;100399.44;2093035;28;20633;-64
2023/08/30 02:01:23;;;;;;;0.10;0.10;;;;;;;20.87;100.00;100355.81;2089634;28;20568;-64
2023/08/30 02:02:23;;;;;;;0.20;0.20;;;;;;;21.30;100.00;100417.16;2094189;28;20192;-64
2023/08/30 02:03:24;;;;;;;0.20;0.20;;;;;;;21.36;100.00;100409.47;2088684;28;20184;-64
2023/08/30 02:04:24;;;;;;;0.17;0.17;;;;;;;21.44;100.00;100412.53;2096257;28;20191;-64
2023/08/30 02:05:24;;;;;;;0.57;0.33;;;;;;;21.46;100.00;100407.94;2090266;28;20222;-64
2023/08/30 02:06:31;;;;;;;0.50;0.40;;;;;;;21.56;100.00;100409.22;2088791;28;20208;-64
2023/08/30 02:07:47;;;;;;;0.20;0.17;;;;;;;21.63;100.00;100410.72;2089294;28;20196;-64
2023/08/30 02:08:58;;;;;;;0.40;0.40;;;;;;;21.70;100.00;100413.81;2088706;28;20441;-64
2023/08/30 02:10:01;;;;;;;0.20;0.20;;;;;;;21.76;100.00;100414.63;2088667;28;20418;-64
2023/08/30 02:11:07;;;;;;;0.47;0.47;;;;;;;21.81;100.00;100425.09;2095047;28;20209;-64
2023/08/30 02:12:13;;;;;;;0.30;0.20;;;;;;;21.84;100.00;100440.22;2090162;28;20279;-64
2023/08/30 02:13:15;;;;;;;0.83;0.30;;;;;;;21.72;100.00;100408.47;2090780;28;20187;-64
2023/08/30 02:14:17;;;;;;;0.20;0.20;;;;;;;21.84;100.00;100426.13;2088534;28;20184;-64
2023/08/30 02:15:19;;;;;;;0.20;0.20;;;;;;;21.90;100.00;100426.91;2090240;28;20834;-63
2023/08/30 02:16:22;;;;;;;0.40;0.40;;;;;;;21.90;100.00;100416.38;2089000;28;20246;-64
2023/08/30 02:17:23;;;;;;;0.10;0.10;;;;;;;21.89;100.00;100420.50;2093354;28;20192;-64
2023/08/30 02:18:25;;;;;;;0.20;0.20;;;;;;;21.92;100.00;100411.00;2094708;28;20812;-64
2023/08/30 02:19:26;;;;;;;0.30;0.30;;;;;;;21.99;100.00;100416.13;2096671;28;20195;-64
2023/08/30 02:20:28;;;;;;;0.40;0.40;;;;;;;22.04;100.00;100420.19;2090819;28;20203;-64
2023/08/30 02:21:28;;;;;;;0.30;0.30;;;;;;;22.06;100.00;100424.03;2094386;28;20650;-64
2023/08/30 02:22:30;;;;;;;0.40;0.40;;;;;;;22.09;100.00;100425.84;2092667;28;20686;-64
2023/08/30 02:23:31;;;;;;;0.10;0.10;;;;;;;22.10;100.00;100424.56;2089579;28;20219;-64
2023/08/30 02:24:31;;;;;;;0.23;0.17;;;;;;;22.10;100.00;100437.91;2090862;28;20207;-64
2023/08/30 02:25:32;;;;;;;0.50;0.50;;;;;;;22.09;100.00;100434.31;2094912;28;20266;-63
2023/08/30 02:26:32;;;;;;;0.53;0.40;;;;;;;22.11;100.00;100440.19;2091039;28;20197;-64
2023/08/30 02:27:33;;;;;;;0.67;0.67;;;;;;;22.13;100.00;100442.50;2088894;28;20187;-63
2023/08/30 02:28:33;;;;;;;0.33;0.30;;;;;;;22.17;100.00;100445.84;2088545;28;20184;-64
2023/08/30 02:29:34;;;;;;;0.30;0.30;;;;;;;22.17;100.00;100446.63;2095610;28;20175;-63
2023/08/30 02:30:34;;;;;;;0.17;0.17;;;;;;;22.17;100.00;100452.28;2089940;28;20180;-64
2023/08/30 02:31:35;;;;;;;0.20;0.20;;;;;;;22.18;100.00;100450.97;2093514;28;20191;-63
2023/08/30 02:32:35;;;;;;;0.20;0.20;;;;;;;22.16;100.00;100447.88;2091007;28;20184;-63
2023/08/30 02:33:37;;;;;;;0.20;0.20;;;;;;;22.14;100.00;100452.50;2093475;28;20184;-63
2023/08/30 02:34:37;;;;;;;0.17;0.17;;;;;;;22.15;100.00;100446.34;2092566;28;20694;-63
2023/08/30 02:35:38;;;;;;;0.20;0.20;;;;;;;22.18;100.00;100450.97;2088825;28;20293;-63
2023/08/30 02:36:38;;;;;;;0.30;0.30;;;;;;;22.20;100.00;100458.91;2095005;28;20176;-63
2023/08/30 02:37:40;;;;;;;0.57;0.57;;;;;;;22.16;100.00;100449.97;2088762;28;20180;-63
2023/08/30 02:38:40;;;;;;;1.07;0.70;;;;;;;22.23;100.00;100455.06;2089711;28;20650;-64
2023/08/30 02:39:40;;;;;;;0.03;0.03;;;;;;;22.22;100.00;100445.81;2088384;28;20621;-64
2023/08/30 02:40:41;;;;;;;0.27;0.10;;;;;;;22.24;100.00;100440.44;2088868;28;20658;-63
2023/08/30 02:41:41;;;;;;;0.30;0.30;;;;;;;21.65;100.00;100358.16;2090926;28;20668;-63
2023/08/30 02:42:42;;;;;;;0.47;0.43;;;;;;;22.08;100.00;100420.72;2089290;28;20180;-63
2023/08/30 02:43:42;;;;;;;0.77;0.20;;;;;;;21.79;100.00;100379.72;2090783;28;20203;-63
2023/08/30 02:44:42;;;;;;;0.23;0.23;;;;;;;22.08;100.00;100415.84;2093647;28;20194;-63
2023/08/30 02:45:43;;;;;;;1.20;0.83;;;;;;;21.55;100.00;100327.94;2088601;28;20237;-63
2023/08/30 02:46:43;;;;;;;0.60;0.60;;;;;;;22.20;100.00;100427.84;2090407;28;20180;-63
2023/08/30 02:47:45;;;;;;;0.10;0.10;;;;;;;22.24;100.00;100429.16;2090633;28;20180;-63
2023/08/30 02:48:45;;;;;;;0.40;0.37;;;;;;;22.24;100.00;100426.31;2089158;28;20188;-63
2023/08/30 02:49:45;;;;;;;0.20;0.20;;;;;;;22.17;100.00;100418.41;2089061;28;20645;-63
2023/08/30 02:50:46;;;;;;;0.30;0.20;;;;;;;22.15;100.00;100423.78;2092452;28;20184;-63
2023/08/30 02:51:46;;;;;;;0.43;0.30;;;;;;;22.21;100.00;100420.94;2090357;28;20195;-63
2023/08/30 02:52:47;;;;;;;0.30;0.30;;;;;;;22.29;100.00;100416.28;2088453;28;20172;-63
2023/08/30 02:53:47;;;;;;;0.20;0.20;;;;;;;22.31;100.00;100411.66;2089609;28;20188;-63
2023/08/30 02:54:47;;;;;;;0.20;0.20;;;;;;;22.19;100.00;100389.63;2088273;28;20188;-63
2023/08/30 02:55:48;;;;;;;0.50;0.30;;;;;;;22.13;100.00;100378.38;2096104;28;20210;-63
2023/08/30 02:56:49;;;;;;;0.43;0.43;;;;;;;22.05;100.00;100370.97;2092478;28;20183;-63
2023/08/30 02:57:49;;;;;;;0.30;0.30;;;;;;;22.03;100.00;100356.59;2088786;28;20199;-63
2023/08/30 02:58:49;;;;;;;0.20;0.20;;;;;;;22.04;100.00;100360.94;2090222;28;20572;-63
2023/08/30 02:59:50;;;;;;;0.20;0.20;;;;;;;22.04;100.00;100350.44;2094896;28;20669;-63
2023/08/30 03:00:52;;;;;;;0.40;0.40;;;;;;;22.02;100.00;100343.78;2093771;28;20183;-63
2023/08/30 03:01:53;;;;;;;0.50;0.50;;;;;;;22.01;100.00;100347.88;2091840;28;20208;-63
2023/08/30 03:02:53;;;;;;;0.50;0.47;;;;;;;21.88;100.00;100333.53;2094450;28;20175;-63
2023/08/30 03:03:54;;;;;;;0.30;0.30;;;;;;;21.94;100.00;100351.22;2096573;28;20215;-63
2023/08/30 03:04:54;;;;;;;0.70;0.37;;;;;;;21.91;100.00;100346.63;2089843;28;20191;-63
2023/08/30 03:05:54;;;;;;;0.20;0.20;;;;;;;21.96;100.00;100357.13;2089487;28;20212;-63
2023/08/30 03:06:55;;;;;;;0.20;0.20;;;;;;;22.03;100.00;100353.78;2089212;28;20271;-64
2023/08/30 03:07:55;;;;;;;0.30;0.30;;;;;;;22.04;100.00;100358.13;2091316;28;20180;-64
2023/08/30 03:08:56;;;;;;;1.90;0.83;;;;;;;22.03;100.00;100354.56;2089686;28;20688;-64
2023/08/30 03:09:56;;;;;;;0.30;0.30;;;;;;;21.98;100.00;100354.56;2094830;28;20767;-63
2023/08/30 03:11:08;;;;;;;0.73;0.73;;;;;;;21.94;100.00;100340.72;2088213;28;20208;-63
2023/08/30 03:12:08;;;;;;;0.20;0.20;;;;;;;21.78;100.00;100330.25;2091037;28;20176;-63
2023/08/30 03:13:08;;;;;;;0.60;0.40;;;;;;;21.72;100.00;100335.13;2090527;28;20234;-63
2023/08/30 03:14:09;;;;;;;0.20;0.20;;;;;;;21.54;100.00;100338.44;2090357;28;20217;-63
2023/08/30 03:15:10;;;;;;;1.17;0.40;;;;;;;21.35;100.00;100326.16;2089447;28;20638;-63
2023/08/30 03:16:11;;;;;;;0.17;0.13;;;;;;;21.30;100.00;100326.97;2088644;28;20279;-63
2023/08/30 03:17:12;;;;;;;0.50;0.50;;;;;;;21.22;100.00;100325.91;2088643;28;20184;-63
2023/08/30 03:18:12;;;;;;;1.13;1.03;;;;;;;21.20;100.00;100336.94;2090499;28;20431;-63
2023/08/30 03:19:13;;;;;;;0.23;0.23;;;;;;;20.47;100.00;100252.09;2088369;28;20187;-63
2023/08/30 03:20:14;;;;;;;0.83;0.60;;;;;;;21.16;100.00;100375.88;2088070;28;20187;-64
2023/08/30 03:21:14;;;;;;;0.30;0.30;;;;;;;20.68;100.00;100309.69;2087586;28;20180;-64
2023/08/30 03:22:15;;;;;;;0.20;0.20;;;;;;;21.22;100.00;100396.38;2087755;28;20215;-64
2023/08/30 03:23:15;;;;;;;0.10;0.10;;;;;;;21.20;100.00;100398.16;2088181;28;20180;-63
2023/08/30 03:24:16;;;;;;;0.20;0.20;;;;;;;21.20;100.00;100403.78;2089874;28;20185;-63
2023/08/30 03:25:16;;;;;;;0.60;0.23;;;;;;;21.01;100.00;100380.19;2088457;28;20729;-63
2023/08/30 03:26:17;;;;;;;0.23;0.23;;;;;;;21.26;100.00;100422.25;2089487;28;20258;-63
2023/08/30 03:27:19;;;;;;;0.40;0.40;;;;;;;21.33;100.00;100418.94;2091640;28;20187;-63
2023/08/30 03:28:20;;;;;;;0.13;0.13;;;;;;;21.41;100.00;100428.44;2093660;28;21085;-63
2023/08/30 03:29:20;;;;;;;0.30;0.30;;;;;;;21.45;100.00;100431.00;2089206;28;20180;-63
2023/08/30 03:30:21;;;;;;;0.20;0.20;;;;;;;21.47;100.00;100432.00;2091023;28;20180;-63
2023/08/30 03:31:21;;;;;;;0.30;0.30;;;;;;;21.45;100.00;100431.75;2089226;28;20188;-63
2023/08/30 03:32:22;;;;;;;0.20;0.20;;;;;;;20.73;100.00;100320.97;2091555;28;20211;-63
2023/08/30 03:33:22;;;;;;;0.67;0.20;;;;;;;21.53;100.00;100438.41;2093352;28;20184;-64
2023/08/30 03:34:22;;;;;;;0.30;0.30;;;;;;;21.59;100.00;100446.91;2091881;28;20192;-63
2023/08/30 03:35:23;;;;;;;0.20;0.20;;;;;;;21.65;100.00;100445.59;2093894;28;20316;-63
2023/08/30 03:36:23;;;;;;;0.40;0.20;;;;;;;21.68;100.00;100455.06;2088252;28;20219;-63
2023/08/30 03:37:24;;;;;;;0.20;0.20;;;;;;;21.67;100.00;100451.50;2092597;28;20194;-63
2023/08/30 03:38:24;;;;;;;0.30;0.30;;;;;;;21.69;100.00;100445.38;2088910;28;20192;-63
2023/08/30 03:39:24;;;;;;;0.30;0.30;;;;;;;21.34;100.00;100391.53;2090735;28;20196;-63
2023/08/30 03:40:26;;;;;;;0.37;0.20;;;;;;;21.54;100.00;100430.75;2090314;28;21122;-63
2023/08/30 03:41:26;;;;;;;0.10;0.10;;;;;;;21.50;100.00;100416.88;2094421;28;20184;-63
2023/08/30 03:42:27;;;;;;;0.20;0.20;;;;;;;21.53;100.00;100412.25;2091834;28;20198;-63
2023/08/30 03:43:27;;;;;;;0.30;0.30;;;;;;;21.16;100.00;100349.72;2092382;28;20196;-63
2023/08/30 03:44:28;;;;;;;0.13;0.13;;;;;;;21.65;100.00;100417.38;2089699;28;20267;-63
2023/08/30 03:45:28;;;;;;;0.40;0.40;;;;;;;21.73;100.00;100414.84;2088538;28;20587;-64
2023/08/30 03:46:29;;;;;;;0.27;0.27;;;;;;;21.79;100.00;100412.78;2092297;28;20254;-63
2023/08/30 03:47:29;;;;;;;0.40;0.23;;;;;;;21.82;100.00;100415.38;2087987;28;20196;-63
2023/08/30 03:48:30;;;;;;;0.17;0.10;;;;;;;21.84;100.00;100418.44;2092999;28;20867;-64
2023/08/30 03:49:31;;;;;;;0.23;0.23;;;;;;;21.87;100.00;100408.97;2088008;28;20245;-63
2023/08/30 03:50:31;;;;;;;0.10;0.10;;;;;;;21.89;100.00;100408.41;2086968;28;20220;-63
2023/08/30 03:51:32;;;;;;;0.30;0.10;;;;;;;21.89;100.00;100408.41;2089840;28;20656;-63
2023/08/30 03:52:32;;;;;;;0.23;0.23;;;;;;;21.87;100.00;100405.34;2089050;28;20588;-63
2023/08/30 03:53:32;;;;;;;0.20;0.20;;;;;;;21.87;100.00;100397.69;2092639;28;20188;-63
2023/08/30 03:54:33;;;;;;;0.30;0.30;;;;;;;21.87;100.00;100406.13;2090618;28;20238;-63
2023/08/30 03:55:34;;;;;;;0.23;0.23;;;;;;;21.90;100.00;100410.00;2088168;28;20195;-63
2023/08/30 03:56:34;;;;;;;0.20;0.20;;;;;;;21.92;100.00;100410.22;2093022;28;20571;-63
2023/08/30 03:57:35;;;;;;;0.30;0.20;;;;;;;21.93;100.00;100415.38;2090555;28;20218;-63
2023/08/30 03:58:37;;;;;;;0.20;0.10;;;;;;;21.92;100.00;100410.22;2090520;28;20188;-63
2023/08/30 03:59:38;;;;;;;1.40;0.97;;;;;;;21.90;100.00;100405.09;2089545;28;20302;-63
2023/08/30 04:00:41;;;;;;;0.20;0.20;;;;;;;22.01;100.00;100421.25;2090602;28;20212;-63
2023/08/30 04:01:41;;;;;;;0.60;0.60;;;;;;;22.03;100.00;100416.63;2093717;28;20313;-63
2023/08/30 04:02:44;;;;;;;0.27;0.20;;;;;;;22.09;100.00;100419.41;2093905;28;20685;-63
2023/08/30 04:03:44;;;;;;;0.10;0.10;;;;;;;22.08;100.00;100424.31;2087947;28;20237;-63
2023/08/30 04:04:47;;;;;;;0.27;0.27;;;;;;;22.08;100.00;100426.34;2092357;28;20653;-63
2023/08/30 04:05:48;;;;;;;1.17;0.30;;;;;;;22.05;100.00;100425.34;2088421;28;20180;-63
2023/08/30 04:06:48;;;;;;;0.77;0.20;;;;;;;22.05;100.00;100430.97;2093095;28;20195;-63
2023/08/30 04:07:48;;;;;;;0.57;0.37;;;;;;;22.02;100.00;100431.25;2088830;28;20666;-63
2023/08/30 04:08:49;;;;;;;1.03;0.53;;;;;;;21.98;100.00;100423.06;2095372;28;20220;-63
2023/08/30 04:09:50;;;;;;;0.27;0.23;;;;;;;22.08;100.00;100446.88;2089651;28;21137;-63
2023/08/30 04:10:53;;;;;;;0.13;0.13;;;;;;;22.08;100.00;100444.06;2089080;28;20180;-63
2023/08/30 04:11:53;;;;;;;0.20;0.20;;;;;;;22.01;100.00;100438.19;2093392;28;20175;-63
2023/08/30 04:12:54;;;;;;;0.30;0.30;;;;;;;21.81;100.00;100418.72;2092897;28;20277;-63
2023/08/30 04:13:54;;;;;;;0.60;0.60;;;;;;;21.82;100.00;100435.13;2087761;28;20196;-63
2023/08/30 04:14:54;;;;;;;0.77;0.53;;;;;;;21.87;100.00;100436.41;2087741;28;20292;-63
2023/08/30 04:15:58;;;;;;;0.10;0.10;;;;;;;21.90;100.00;100435.38;2082457;28;20288;-63
2023/08/30 04:16:58;;;;;;;0.70;0.70;;;;;;;21.92;100.00;100441.25;2091967;28;20225;-63
2023/08/30 04:17:59;;;;;;;0.17;0.17;;;;;;;21.93;100.00;100445.63;2088676;28;20190;-63
2023/08/30 04:18:59;;;;;;;0.30;0.30;;;;;;;21.90;100.00;100429.72;2091298;28;20190;-63
2023/08/30 04:20:00;;;;;;;0.10;0.10;;;;;;;21.28;100.00;100340.03;2091846;28;20186;-63
2023/08/30 04:21:02;;;;;;;0.40;0.30;;;;;;;21.96;100.00;100447.41;2092915;28;20180;-63
2023/08/30 04:22:02;;;;;;;0.27;0.20;;;;;;;21.94;100.00;100442.28;2091896;28;20175;-63
2023/08/30 04:23:03;;;;;;;0.30;0.30;;;;;;;21.97;100.00;100446.13;2090311;28;20180;-63
2023/08/30 04:24:04;;;;;;;1.00;0.33;;;;;;;21.99;100.00;100446.38;2091961;28;20187;-63
2023/08/30 04:25:05;;;;;;;0.47;0.27;;;;;;;21.35;100.00;100357.16;2090748;28;20688;-63
2023/08/30 04:26:05;;;;;;;0.43;0.30;;;;;;;21.99;100.00;100438.69;2093803;28;20700;-63
2023/08/30 04:27:06;;;;;;;0.40;0.40;;;;;;;22.01;100.00;100432.53;2094157;28;20727;-63
2023/08/30 04:28:06;;;;;;;0.30;0.30;;;;;;;22.00;100.00;100431.00;2090648;28;20184;-63
2023/08/30 04:29:06;;;;;;;0.20;0.20;;;;;;;21.98;100.00;100423.06;2089990;28;20568;-63
2023/08/30 04:30:07;;;;;;;1.13;0.40;;;;;;;22.00;100.00;100422.53;2087855;28;20184;-63
2023/08/30 04:31:08;;;;;;;0.37;0.20;;;;;;;22.00;100.00;100428.94;2093277;28;20213;-63
2023/08/30 04:32:08;;;;;;;0.93;0.23;;;;;;;22.00;100.00;100425.34;2093410;28;20219;-63
2023/08/30 04:33:08;;;;;;;0.20;0.20;;;;;;;22.01;100.00;100426.88;2088442;28;20281;-63
2023/08/30 04:34:09;;;;;;;0.30;0.30;;;;;;;21.90;100.00;100430.47;2091777;28;20175;-63
2023/08/30 04:35:09;;;;;;;0.10;0.10;;;;;;;21.91;100.00;100437.66;2083981;28;20195;-63
2023/08/30 04:36:10;;;;;;;0.20;0.20;;;;;;;21.89;100.00;100443.06;2083081;28;20413;-63
2023/08/30 04:37:10;;;;;;;0.13;0.13;;;;;;;21.75;100.00;100420.78;2090270;28;20191;-63
2023/08/30 04:38:10;;;;;;;0.30;0.30;;;;;;;21.69;100.00;100431.28;2090874;28;20215;-63
2023/08/30 04:39:13;;;;;;;0.30;0.30;;;;;;;21.85;100.00;100462.28;2091650;28;20216;-63
2023/08/30 04:40:14;;;;;;;0.10;0.10;;;;;;;21.88;100.00;100455.63;2088758;28;20294;-63
2023/08/30 04:41:14;;;;;;;0.20;0.20;;;;;;;21.81;100.00;100447.66;2088574;28;20484;-63
2023/08/30 04:42:15;;;;;;;0.20;0.20;;;;;;;21.87;100.00;100462.56;2087888;28;20184;-63
2023/08/30 04:43:15;;;;;;;1.03;0.57;;;;;;;21.92;100.00;100475.13;2094524;28;20705;-63